createdAt,value
2022-08-29T00:00:32.255Z,12.40
2022-08-29T00:03:00.940Z,12.50
2022-08-29T00:05:30.111Z,12.50
2022-08-29T00:07:59.231Z,12.50
2022-08-29T00:10:27.200Z,12.50
2022-08-29T00:12:54.901Z,12.50
2022-08-29T00:15:25.559Z,12.50
2022-08-29T00:17:52.507Z,12.50
2022-08-29T00:20:25.275Z,12.50
2022-08-29T00:23:02.028Z,12.50
2022-08-29T00:25:29.003Z,12.60
2022-08-29T00:27:56.774Z,12.60
2022-08-29T00:30:23.929Z,12.60
2022-08-29T00:32:51.205Z,12.70
2022-08-29T00:35:24.061Z,12.70
2022-08-29T00:37:52.704Z,12.60
2022-08-29T00:40:22.641Z,12.60
2022-08-29T00:42:49.574Z,12.70
2022-08-29T00:45:18.106Z,12.60
2022-08-29T00:47:47.884Z,12.70
2022-08-29T00:50:21.883Z,12.60
2022-08-29T00:52:49.355Z,12.60
2022-08-29T00:55:20.276Z,12.70
2022-08-29T00:57:49.018Z,12.70
2022-08-29T01:00:16.534Z,12.70
2022-08-29T01:02:43.628Z,12.70
2022-08-29T01:05:12.012Z,12.70
2022-08-29T01:07:40.794Z,12.70
2022-08-29T01:10:13.807Z,12.70
2022-08-29T01:12:40.972Z,12.70
2022-08-29T01:15:09.649Z,12.60
2022-08-29T01:17:48.355Z,12.60
2022-08-29T01:20:19.464Z,12.70
2022-08-29T01:22:58.673Z,12.70
2022-08-29T01:25:27.381Z,12.60
2022-08-29T01:28:12.146Z,12.70
2022-08-29T01:30:57.041Z,12.60
2022-08-29T01:33:24.164Z,12.60
2022-08-29T01:35:51.013Z,12.70
2022-08-29T01:38:27.799Z,12.60
2022-08-29T01:40:57.698Z,12.60
2022-08-29T01:43:25.583Z,12.60
2022-08-29T01:45:52.615Z,12.60
2022-08-29T01:48:19.619Z,12.60
2022-08-29T01:50:46.936Z,12.60
2022-08-29T01:53:14.400Z,12.60
2022-08-29T01:55:41.669Z,12.60
2022-08-29T01:58:09.183Z,12.60
2022-08-29T02:00:36.357Z,12.60
2022-08-29T02:03:03.544Z,12.60
2022-08-29T02:05:30.837Z,12.60
2022-08-29T02:08:01.256Z,12.60
2022-08-29T02:10:30.589Z,12.60
2022-08-29T02:12:57.891Z,12.60
2022-08-29T02:15:24.847Z,12.60
2022-08-29T02:17:51.779Z,12.60
2022-08-29T02:20:18.695Z,12.50
2022-08-29T02:22:45.707Z,12.60
2022-08-29T02:25:31.123Z,12.60
2022-08-29T02:28:00.788Z,12.50
2022-08-29T02:30:27.673Z,12.60
2022-08-29T02:32:54.550Z,12.60
2022-08-29T02:35:21.426Z,12.50
2022-08-29T02:37:49.900Z,12.50
2022-08-29T02:40:16.936Z,12.50
2022-08-29T02:42:44.010Z,12.50
2022-08-29T02:45:14.063Z,12.50
2022-08-29T02:47:42.934Z,12.50
2022-08-29T02:50:10.812Z,12.50
2022-08-29T02:52:41.602Z,12.50
2022-08-29T02:55:10.470Z,12.50
2022-08-29T02:57:37.718Z,12.50
2022-08-29T03:00:08.364Z,12.40
2022-08-29T03:02:35.629Z,12.40
2022-08-29T03:05:02.468Z,12.40
2022-08-29T03:07:29.690Z,12.30
2022-08-29T03:09:56.628Z,12.30
2022-08-29T03:12:24.733Z,12.30
2022-08-29T03:14:53.648Z,12.30
2022-08-29T03:17:20.467Z,12.30
2022-08-29T03:19:50.247Z,12.30
2022-08-29T03:22:17.133Z,12.30
2022-08-29T03:24:44.368Z,12.30
2022-08-29T03:27:11.294Z,12.30
2022-08-29T03:29:38.801Z,12.30
2022-08-29T03:32:06.012Z,12.30
2022-08-29T03:34:33.151Z,12.30
2022-08-29T03:37:00.253Z,12.30
2022-08-29T03:39:27.267Z,12.40
2022-08-29T03:41:54.146Z,12.30
2022-08-29T03:44:21.294Z,12.30
2022-08-29T03:46:48.864Z,12.20
2022-08-29T03:49:15.911Z,12.30
2022-08-29T03:51:42.847Z,12.30
2022-08-29T03:54:09.751Z,12.30
2022-08-29T03:56:36.660Z,12.20
2022-08-29T03:59:03.777Z,12.20
2022-08-29T04:01:30.741Z,12.20
2022-08-29T04:03:58.172Z,12.20
2022-08-29T04:06:27.030Z,12.20
2022-08-29T04:08:54.214Z,12.20
2022-08-29T04:11:23.420Z,12.20
2022-08-29T04:13:51.027Z,12.10
2022-08-29T04:16:19.816Z,12.20
2022-08-29T04:18:46.772Z,12.20
2022-08-29T04:21:13.654Z,12.20
2022-08-29T04:23:40.484Z,12.10
2022-08-29T04:29:05.406Z,12.10
2022-08-29T04:31:32.357Z,12.10
2022-08-29T04:33:59.471Z,12.10
2022-08-29T04:36:26.551Z,12.10
2022-08-29T04:38:54.519Z,12.10
2022-08-29T04:41:21.885Z,12.10
2022-08-29T04:43:48.783Z,12.10
2022-08-29T04:46:23.636Z,12.10
2022-08-29T04:48:52.025Z,12.10
2022-08-29T04:51:19.007Z,12.10
2022-08-29T04:53:46.841Z,12.10
2022-08-29T04:56:14.411Z,12.10
2022-08-29T04:58:44.083Z,12.10
2022-08-29T05:01:16.071Z,12.10
2022-08-29T05:03:43.015Z,12.00
2022-08-29T05:06:12.408Z,12.10
2022-08-29T05:08:40.611Z,12.10
2022-08-29T05:11:09.911Z,12.10
2022-08-29T05:13:37.062Z,12.10
2022-08-29T05:16:07.495Z,12.10
2022-08-29T05:18:34.560Z,12.10
2022-08-29T05:21:01.479Z,12.00
2022-08-29T05:23:28.320Z,12.00
2022-08-29T05:25:56.290Z,12.00
2022-08-29T05:28:23.377Z,12.00
2022-08-29T05:30:51.080Z,12.00
2022-08-29T05:33:18.063Z,12.00
2022-08-29T05:35:45.158Z,12.00
2022-08-29T05:38:12.347Z,12.00
2022-08-29T05:40:39.283Z,12.00
2022-08-29T05:43:06.993Z,12.10
2022-08-29T05:45:37.784Z,12.10
2022-08-29T05:48:05.692Z,12.10
2022-08-29T05:50:32.642Z,12.10
2022-08-29T05:52:59.482Z,12.10
2022-08-29T05:55:26.226Z,12.10
2022-08-29T05:57:54.728Z,12.10
2022-08-29T06:00:21.701Z,12.10
2022-08-29T06:02:51.100Z,12.10
2022-08-29T06:05:18.121Z,12.10
2022-08-29T06:07:45.027Z,12.20
2022-08-29T06:10:11.868Z,12.20
2022-08-29T06:12:38.797Z,12.20
2022-08-29T06:15:06.615Z,12.20
2022-08-29T06:17:34.380Z,12.20
2022-08-29T06:20:01.384Z,12.20
2022-08-29T06:22:28.261Z,12.20
2022-08-29T06:24:57.662Z,12.30
2022-08-29T06:27:25.202Z,12.30
2022-08-29T06:29:54.188Z,12.30
2022-08-29T06:32:21.025Z,12.30
2022-08-29T06:34:47.868Z,12.30
2022-08-29T06:37:14.693Z,12.30
2022-08-29T06:39:41.524Z,12.40
2022-08-29T06:42:08.329Z,12.40
2022-08-29T06:44:36.293Z,12.40
2022-08-29T06:47:03.276Z,12.50
2022-08-29T06:49:30.215Z,12.50
2022-08-29T06:51:58.535Z,12.50
2022-08-29T06:54:28.133Z,12.50
2022-08-29T06:56:56.079Z,12.50
2022-08-29T06:59:22.917Z,12.60
2022-08-29T07:01:49.840Z,12.60
2022-08-29T07:04:16.729Z,12.60
2022-08-29T07:06:48.360Z,12.70
2022-08-29T07:09:15.320Z,12.70
2022-08-29T07:11:42.353Z,12.70
2022-08-29T07:14:09.730Z,12.80
2022-08-29T07:16:36.867Z,12.80
2022-08-29T07:19:05.145Z,12.90
2022-08-29T07:21:32.068Z,12.90
2022-08-29T07:23:59.229Z,12.90
2022-08-29T07:26:30.676Z,12.90
2022-08-29T07:28:59.588Z,13.00
2022-08-29T07:31:30.831Z,13.00
2022-08-29T07:34:02.163Z,13.10
2022-08-29T07:36:30.657Z,13.10
2022-08-29T07:38:57.590Z,13.20
2022-08-29T07:41:25.017Z,13.20
2022-08-29T07:43:51.996Z,13.30
2022-08-29T07:46:27.152Z,13.30
2022-08-29T07:48:58.694Z,13.40
2022-08-29T07:51:25.906Z,13.40
2022-08-29T07:53:53.278Z,13.50
2022-08-29T07:56:23.108Z,13.50
2022-08-29T07:58:51.942Z,13.60
2022-08-29T08:01:21.224Z,13.60
2022-08-29T08:03:49.034Z,13.70
2022-08-29T08:06:17.601Z,13.70
2022-08-29T08:08:47.160Z,13.70
2022-08-29T08:11:14.284Z,13.70
2022-08-29T08:13:41.224Z,13.80
2022-08-29T08:16:12.538Z,13.80
2022-08-29T08:18:40.499Z,13.80
2022-08-29T08:21:07.834Z,13.80
2022-08-29T08:23:34.990Z,13.90
2022-08-29T08:26:02.042Z,13.90
2022-08-29T08:28:30.622Z,13.90
2022-08-29T08:31:02.306Z,14.00
2022-08-29T08:33:34.833Z,14.00
2022-08-29T08:36:02.807Z,14.00
2022-08-29T08:38:31.200Z,14.00
2022-08-29T08:41:04.537Z,14.00
2022-08-29T08:43:41.586Z,14.10
2022-08-29T08:46:10.541Z,14.10
2022-08-29T08:48:38.977Z,14.10
2022-08-29T08:51:05.900Z,14.10
2022-08-29T08:53:33.922Z,14.20
2022-08-29T08:56:02.560Z,14.20
2022-08-29T08:58:48.281Z,14.20
2022-08-29T09:01:27.989Z,14.20
2022-08-29T09:04:09.639Z,14.30
2022-08-29T09:06:56.679Z,14.30
2022-08-29T09:09:32.612Z,14.30
2022-08-29T09:12:01.519Z,14.40
2022-08-29T09:14:28.414Z,14.40
2022-08-29T09:16:57.997Z,14.50
2022-08-29T09:19:25.150Z,14.50
2022-08-29T09:21:55.390Z,14.60
2022-08-29T09:24:28.945Z,14.60
2022-08-29T09:26:56.581Z,14.60
2022-08-29T09:29:28.328Z,14.70
2022-08-29T09:32:10.335Z,14.80
2022-08-29T09:37:26.433Z,14.90
2022-08-29T09:39:55.721Z,14.90
2022-08-29T09:42:23.331Z,15.10
2022-08-29T09:44:56.255Z,15.20
2022-08-29T09:47:24.793Z,15.20
2022-08-29T09:50:10.303Z,15.30
2022-08-29T09:52:38.988Z,15.40
2022-08-29T09:55:19.080Z,15.60
2022-08-29T09:57:50.767Z,15.60
2022-08-29T10:00:18.995Z,15.80
2022-08-29T10:02:48.315Z,15.90
2022-08-29T10:05:35.625Z,16.00
2022-08-29T10:08:06.271Z,16.00
2022-08-29T10:10:36.393Z,16.10
2022-08-29T10:13:07.165Z,16.10
2022-08-29T10:15:51.823Z,16.20
2022-08-29T10:18:21.811Z,16.20
2022-08-29T10:20:56.373Z,16.20
2022-08-29T10:23:30.637Z,16.20
2022-08-29T10:26:00.243Z,16.10
2022-08-29T10:28:33.033Z,16.10
2022-08-29T10:31:03.882Z,16.00
2022-08-29T10:33:39.733Z,16.00
2022-08-29T10:36:06.722Z,16.00
2022-08-29T10:39:00.194Z,16.10
2022-08-29T10:41:29.755Z,16.10
2022-08-29T10:44:06.036Z,16.20
2022-08-29T10:46:42.143Z,16.20
2022-08-29T10:49:27.624Z,16.30
2022-08-29T10:52:13.389Z,16.40
2022-08-29T10:54:55.241Z,16.40
2022-08-29T10:57:31.632Z,16.40
2022-08-29T11:00:04.601Z,16.40
2022-08-29T11:02:35.080Z,16.50
2022-08-29T11:05:07.283Z,16.50
2022-08-29T11:07:40.231Z,16.50
2022-08-29T11:10:07.383Z,16.70
2022-08-29T11:12:37.850Z,16.80
2022-08-29T11:15:04.825Z,16.80
2022-08-29T11:17:34.585Z,16.80
2022-08-29T11:20:11.771Z,16.80
2022-08-29T11:22:44.704Z,16.80
2022-08-29T11:25:13.891Z,16.80
2022-08-29T11:27:46.162Z,16.80
2022-08-29T11:30:17.958Z,16.80
2022-08-29T11:32:53.850Z,16.80
2022-08-29T11:35:39.700Z,16.80
2022-08-29T11:38:12.304Z,16.80
2022-08-29T11:41:25.434Z,16.70
2022-08-29T11:43:45.363Z,16.80
2022-08-29T11:46:14.087Z,16.80
2022-08-29T11:48:46.170Z,16.80
2022-08-29T11:51:34.217Z,16.80
2022-08-29T11:54:24.955Z,16.80
2022-08-29T11:57:01.453Z,16.80
2022-08-29T11:59:51.833Z,16.80
2022-08-29T12:02:27.858Z,16.80
2022-08-29T12:04:56.096Z,16.70
2022-08-29T12:07:33.093Z,16.80
2022-08-29T12:10:00.682Z,16.80
2022-08-29T12:12:41.717Z,16.90
2022-08-29T12:15:23.677Z,16.90
2022-08-29T12:18:02.031Z,16.90
2022-08-29T12:20:30.128Z,16.90
2022-08-29T12:23:03.733Z,17.00
2022-08-29T12:25:30.599Z,17.00
2022-08-29T12:28:28.104Z,17.00
2022-08-29T12:30:57.978Z,17.00
2022-08-29T12:33:40.739Z,17.00
2022-08-29T12:36:26.243Z,17.10
2022-08-29T12:39:11.790Z,17.10
2022-08-29T12:41:50.410Z,17.10
2022-08-29T12:44:20.067Z,17.10
2022-08-29T12:46:50.738Z,17.10
2022-08-29T12:49:25.605Z,17.10
2022-08-29T12:52:03.949Z,17.00
2022-08-29T12:54:35.514Z,17.00
2022-08-29T12:57:03.642Z,17.00
2022-08-29T12:59:31.301Z,17.00
2022-08-29T13:01:58.805Z,17.00
2022-08-29T13:04:31.881Z,16.90
2022-08-29T13:06:59.304Z,17.00
2022-08-29T13:09:27.926Z,17.00
2022-08-29T13:12:08.692Z,16.90
2022-08-29T13:14:55.840Z,17.00
2022-08-29T13:17:27.736Z,17.00
2022-08-29T13:20:13.282Z,16.90
2022-08-29T13:22:40.074Z,16.90
2022-08-29T13:25:07.145Z,16.80
2022-08-29T13:27:34.048Z,16.80
2022-08-29T13:30:01.419Z,16.80
2022-08-29T13:32:28.274Z,16.80
2022-08-29T13:35:01.223Z,16.80
2022-08-29T13:37:29.844Z,16.80
2022-08-29T13:39:56.877Z,16.80
2022-08-29T13:42:26.020Z,16.80
2022-08-29T13:44:52.845Z,16.80
2022-08-29T13:47:23.742Z,16.70
2022-08-29T13:49:51.529Z,16.70
2022-08-29T13:52:19.161Z,16.70
2022-08-29T13:54:46.109Z,16.70
2022-08-29T13:57:17.666Z,16.70
2022-08-29T13:59:45.008Z,16.80
2022-08-29T14:02:15.074Z,16.70
2022-08-29T14:04:43.138Z,16.70
2022-08-29T14:07:13.625Z,16.70
2022-08-29T14:09:41.968Z,16.70
2022-08-29T14:12:09.266Z,16.70
2022-08-29T14:14:36.418Z,16.70
2022-08-29T14:17:03.242Z,16.70
2022-08-29T14:19:30.258Z,16.70
2022-08-29T14:22:00.660Z,16.70
2022-08-29T14:24:30.498Z,16.60
2022-08-29T14:29:40.809Z,16.60
2022-08-29T14:32:07.630Z,16.60
2022-08-29T14:34:34.631Z,16.60
2022-08-29T14:37:02.078Z,16.60
2022-08-29T14:39:29.153Z,16.60
2022-08-29T14:41:56.002Z,16.60
2022-08-29T14:44:22.881Z,16.60
2022-08-29T14:46:50.421Z,16.60
2022-08-29T14:49:17.553Z,16.60
2022-08-29T14:51:44.682Z,16.70
2022-08-29T14:54:12.225Z,16.70
2022-08-29T14:56:49.590Z,16.70
2022-08-29T14:59:17.806Z,16.70
2022-08-29T15:01:45.998Z,16.60
2022-08-29T15:04:15.616Z,16.60
2022-08-29T15:06:43.350Z,16.60
2022-08-29T15:09:10.352Z,16.60
2022-08-29T15:11:37.358Z,16.60
2022-08-29T15:14:04.802Z,16.70
2022-08-29T15:16:32.229Z,16.70
2022-08-29T15:21:46.166Z,16.70
2022-08-29T15:24:13.420Z,16.80
2022-08-29T15:26:40.296Z,16.80
2022-08-29T15:29:08.994Z,16.70
2022-08-29T15:31:35.900Z,16.80
2022-08-29T15:34:02.958Z,16.70
2022-08-29T15:36:29.876Z,16.70
2022-08-29T15:38:56.748Z,16.60
2022-08-29T15:41:23.599Z,16.60
2022-08-29T15:43:50.471Z,16.60
2022-08-29T15:46:18.516Z,16.60
2022-08-29T15:48:45.467Z,16.50
2022-08-29T15:51:12.559Z,16.50
2022-08-29T15:53:39.458Z,16.50
2022-08-29T15:56:06.414Z,16.50
2022-08-29T15:58:33.272Z,16.50
2022-08-29T16:01:00.325Z,16.50
2022-08-29T16:03:27.388Z,16.40
2022-08-29T16:05:54.331Z,16.40
2022-08-29T16:08:22.466Z,16.50
2022-08-29T16:10:56.612Z,16.50
2022-08-29T16:13:23.726Z,16.50
2022-08-29T16:15:50.656Z,16.50
2022-08-29T16:18:17.633Z,16.50
2022-08-29T16:20:44.577Z,16.40
2022-08-29T16:23:11.937Z,16.40
2022-08-29T16:25:39.827Z,16.40
2022-08-29T16:28:08.335Z,16.30
2022-08-29T16:30:35.327Z,16.30
2022-08-29T16:33:12.628Z,16.20
2022-08-29T16:35:39.443Z,16.20
2022-08-29T16:38:07.838Z,16.20
2022-08-29T16:40:34.972Z,16.20
2022-08-29T16:43:02.804Z,16.10
2022-08-29T16:45:29.929Z,16.10
2022-08-29T16:47:57.707Z,16.00
2022-08-29T16:50:25.217Z,16.00
2022-08-29T16:52:52.198Z,15.90
2022-08-29T16:55:19.076Z,15.90
2022-08-29T16:58:05.848Z,15.90
2022-08-29T17:00:32.727Z,15.90
2022-08-29T17:02:59.784Z,15.80
2022-08-29T17:05:27.061Z,15.80
2022-08-29T17:07:53.815Z,15.70
2022-08-29T17:10:20.569Z,15.70
2022-08-29T17:12:47.392Z,15.70
2022-08-29T17:15:14.293Z,15.60
2022-08-29T17:17:41.181Z,15.60
2022-08-29T17:20:08.293Z,15.60
2022-08-29T17:22:35.633Z,15.50
2022-08-29T17:25:02.448Z,15.50
2022-08-29T17:27:30.195Z,15.50
2022-08-29T17:29:57.357Z,15.40
2022-08-29T17:32:24.193Z,15.50
2022-08-29T17:34:51.020Z,15.40
2022-08-29T17:37:20.299Z,15.40
2022-08-29T17:39:47.286Z,15.40
2022-08-29T17:42:14.370Z,15.40
2022-08-29T17:44:41.321Z,15.30
2022-08-29T17:47:08.163Z,15.30
2022-08-29T17:49:35.128Z,15.20
2022-08-29T17:52:02.428Z,15.20
2022-08-29T17:54:29.276Z,15.10
2022-08-29T17:56:58.058Z,15.10
2022-08-29T17:59:27.484Z,15.10
2022-08-29T18:01:55.056Z,15.00
2022-08-29T18:04:22.372Z,15.00
2022-08-29T18:06:49.679Z,15.00
2022-08-29T18:09:16.809Z,15.00
2022-08-29T18:11:45.987Z,14.90
2022-08-29T18:14:13.143Z,14.90
2022-08-29T18:16:40.107Z,14.80
2022-08-29T18:19:07.296Z,14.80
2022-08-29T18:21:34.349Z,14.80
2022-08-29T18:24:01.491Z,14.70
2022-08-29T18:26:28.538Z,14.70
2022-08-29T18:28:55.765Z,14.70
2022-08-29T18:31:27.086Z,14.60
2022-08-29T18:34:00.490Z,14.60
2022-08-29T18:36:31.051Z,14.60
2022-08-29T18:38:58.643Z,14.60
2022-08-29T18:41:25.487Z,14.50
2022-08-29T18:43:52.261Z,14.40
2022-08-29T18:46:22.137Z,14.50
2022-08-29T18:48:49.099Z,14.40
2022-08-29T18:51:16.083Z,14.30
2022-08-29T18:53:43.369Z,14.30
2022-08-29T18:56:10.462Z,14.40
2022-08-29T18:58:39.690Z,14.30
2022-08-29T19:01:13.986Z,14.30
2022-08-29T19:03:41.282Z,14.20
2022-08-29T19:06:08.088Z,14.20
2022-08-29T19:08:34.929Z,14.20
2022-08-29T19:11:01.755Z,14.20
2022-08-29T19:13:30.770Z,14.20
2022-08-29T19:15:59.192Z,14.20
2022-08-29T19:18:26.758Z,14.10
2022-08-29T19:21:02.787Z,14.10
2022-08-29T19:23:34.325Z,14.10
2022-08-29T19:26:04.658Z,14.10
2022-08-29T19:28:31.895Z,14.00
2022-08-29T19:30:59.970Z,14.00
2022-08-29T19:33:26.780Z,14.00
2022-08-29T19:35:53.814Z,13.90
2022-08-29T19:38:21.990Z,13.90
2022-08-29T19:40:49.578Z,13.90
2022-08-29T19:43:17.248Z,13.80
2022-08-29T19:45:44.650Z,13.80
2022-08-29T19:48:15.302Z,13.80
2022-08-29T19:50:43.066Z,13.70
2022-08-29T19:53:16.955Z,13.70
2022-08-29T19:55:51.533Z,13.70
2022-08-29T19:58:18.493Z,13.60
2022-08-29T20:00:45.793Z,13.60
2022-08-29T20:03:12.657Z,13.60
2022-08-29T20:05:39.593Z,13.60
2022-08-29T20:08:06.399Z,13.50
2022-08-29T20:10:35.090Z,13.50
2022-08-29T20:13:04.159Z,13.50
2022-08-29T20:15:31.088Z,13.50
2022-08-29T20:17:59.710Z,13.40
2022-08-29T20:20:28.356Z,13.40
2022-08-29T20:22:55.313Z,13.50
2022-08-29T20:25:23.060Z,13.40
2022-08-29T20:27:50.554Z,13.40
2022-08-29T20:30:21.682Z,13.40
2022-08-29T20:32:50.339Z,13.30
2022-08-29T20:35:37.184Z,13.30
2022-08-29T20:38:04.062Z,13.30
2022-08-29T20:40:30.911Z,13.20
2022-08-29T20:42:57.858Z,13.20
2022-08-29T20:45:24.878Z,13.20
2022-08-29T20:47:51.811Z,13.10
2022-08-29T20:50:18.914Z,13.20
2022-08-29T20:52:46.633Z,13.20
2022-08-29T20:55:13.569Z,13.10
2022-08-29T20:57:41.310Z,13.10
2022-08-29T21:00:09.464Z,13.10
2022-08-29T21:02:55.221Z,13.10
2022-08-29T21:05:43.154Z,13.10
2022-08-29T21:08:10.642Z,13.10
2022-08-29T21:10:37.697Z,13.20
2022-08-29T21:13:05.127Z,13.20
2022-08-29T21:15:32.161Z,13.20
2022-08-29T21:17:59.233Z,13.10
2022-08-29T21:20:29.296Z,13.10
2022-08-29T21:22:58.621Z,13.10
2022-08-29T21:25:25.542Z,13.00
2022-08-29T21:27:52.419Z,13.00
2022-08-29T21:30:19.293Z,13.00
2022-08-29T21:32:46.385Z,13.00
2022-08-29T21:35:13.218Z,12.90
2022-08-29T21:37:40.075Z,12.90
2022-08-29T21:40:07.373Z,12.90
2022-08-29T21:42:34.284Z,12.90
2022-08-29T21:45:01.135Z,12.90
2022-08-29T21:47:28.362Z,12.80
2022-08-29T21:49:55.215Z,12.80
2022-08-29T21:52:22.226Z,12.80
2022-08-29T21:54:50.045Z,12.80
2022-08-29T21:57:39.673Z,12.80
2022-08-29T22:00:08.813Z,12.80
2022-08-29T22:02:35.748Z,12.70
2022-08-29T22:05:02.668Z,12.70
2022-08-29T22:07:30.352Z,12.60
2022-08-29T22:09:57.327Z,12.60
2022-08-29T22:12:25.093Z,12.60
2022-08-29T22:15:10.234Z,12.60
2022-08-29T22:17:39.318Z,12.60
2022-08-29T22:20:06.373Z,12.50
2022-08-29T22:22:33.250Z,12.50
2022-08-29T22:25:00.143Z,12.50
2022-08-29T22:27:26.993Z,12.50
2022-08-29T22:29:53.841Z,12.40
2022-08-29T22:32:20.623Z,12.40
2022-08-29T22:34:47.453Z,12.50
2022-08-29T22:37:14.299Z,12.50
2022-08-29T22:39:41.179Z,12.50
2022-08-29T22:42:08.153Z,12.40
2022-08-29T22:45:02.364Z,12.40
2022-08-29T22:47:21.910Z,12.30
2022-08-29T22:49:48.788Z,12.30
2022-08-29T22:52:15.666Z,12.30
2022-08-29T22:54:42.632Z,12.20
2022-08-29T22:57:10.622Z,12.20
2022-08-29T22:59:37.868Z,12.20
2022-08-29T23:02:05.571Z,12.20
2022-08-29T23:04:32.603Z,12.20
2022-08-29T23:07:00.086Z,12.20
2022-08-29T23:09:27.344Z,12.20
2022-08-29T23:12:00.421Z,12.10
2022-08-29T23:14:27.311Z,12.10
2022-08-29T23:16:55.276Z,12.10
2022-08-29T23:19:22.151Z,12.00
2022-08-29T23:21:48.952Z,11.90
2022-08-29T23:24:18.228Z,12.00
2022-08-29T23:26:45.047Z,12.00
2022-08-29T23:29:11.908Z,11.90
2022-08-29T23:31:38.824Z,11.90
2022-08-29T23:34:07.101Z,11.90
2022-08-29T23:36:34.347Z,11.90
2022-08-29T23:39:01.734Z,11.80
2022-08-29T23:41:29.600Z,11.80
2022-08-29T23:43:56.556Z,11.70
2022-08-29T23:46:23.542Z,11.70
2022-08-29T23:48:50.573Z,11.60
2022-08-29T23:51:17.760Z,11.60
2022-08-29T23:53:44.950Z,11.60
2022-08-29T23:56:13.099Z,11.60
2022-08-29T23:58:40.451Z,11.50
